Terminal Aerodrome Forecast
Issued by NWS

Home | Current Version | Previous Version | Graphics & Text | Print | Product List | Glossary On
Versions: 1 2 3 4 5 6 7 8 9 10 11 12 13 14 15 16 17 18 19 20 21 22 23 24
000
FTUS43 KTOP 222300
TAFFOE
TAF
KFOE 222334Z 2300/2324 19012KT 6SM BR SCT015 BKN045
     FM230700 19012KT 3SM -DZ BR OVC002
     FM231500 18008KT 3SM -DZ BR VCTS BKN006 OVC020CB
     FM232000 31018G28KT 5SM -RA BR BKN020=

USA.gov is the U.S. government's official web portal to all federal, state and local government web resources and services.